createdAt,value
2022-08-25T00:00:57.719Z,23.09
2022-08-25T00:03:02.712Z,23.11
2022-08-25T00:05:10.141Z,23.12
2022-08-25T00:07:16.006Z,23.11
2022-08-25T00:09:26.693Z,23.09
2022-08-25T00:11:34.960Z,23.07
2022-08-25T00:13:40.534Z,23.04
2022-08-25T00:15:45.389Z,23.01
2022-08-25T00:17:50.555Z,22.98
2022-08-25T00:19:55.316Z,22.96
2022-08-25T00:22:00.889Z,22.94
2022-08-25T00:24:06.870Z,22.90
2022-08-25T00:26:12.256Z,22.89
2022-08-25T00:28:17.342Z,22.86
2022-08-25T00:30:22.125Z,22.82
2022-08-25T00:32:26.929Z,22.83
2022-08-25T00:34:34.866Z,22.83
2022-08-25T00:36:40.469Z,22.85
2022-08-25T00:38:47.131Z,22.84
2022-08-25T00:40:52.217Z,22.84
2022-08-25T00:42:57.034Z,22.83
2022-08-25T00:45:02.321Z,22.83
2022-08-25T00:47:07.960Z,22.83
2022-08-25T00:49:25.474Z,22.84
2022-08-25T00:51:39.286Z,22.84
2022-08-25T00:53:44.540Z,22.82
2022-08-25T00:55:49.755Z,22.80
2022-08-25T00:58:01.055Z,22.80
2022-08-25T01:00:13.678Z,22.78
2022-08-25T01:02:18.547Z,22.74
2022-08-25T01:04:23.783Z,22.70
2022-08-25T01:06:31.329Z,22.68
2022-08-25T01:08:36.169Z,22.68
2022-08-25T01:10:43.843Z,22.68
2022-08-25T01:12:49.321Z,22.69
2022-08-25T01:14:55.372Z,22.70
2022-08-25T01:17:00.322Z,22.71
2022-08-25T01:19:06.870Z,22.72
2022-08-25T01:21:11.656Z,22.71
2022-08-25T01:23:19.221Z,22.70
2022-08-25T01:25:30.808Z,22.72
2022-08-25T01:27:35.504Z,22.74
2022-08-25T01:29:40.912Z,22.75
2022-08-25T01:31:45.656Z,22.76
2022-08-25T01:33:50.363Z,22.74
2022-08-25T01:35:55.613Z,22.74
2022-08-25T01:38:01.110Z,22.75
2022-08-25T01:40:07.845Z,22.76
2022-08-25T01:42:33.412Z,22.77
2022-08-25T01:44:40.786Z,22.78
2022-08-25T01:46:45.649Z,22.79
2022-08-25T01:48:50.429Z,22.79
2022-08-25T01:50:55.154Z,22.79
2022-08-25T01:53:03.914Z,22.79
2022-08-25T01:55:09.596Z,22.80
2022-08-25T01:57:14.476Z,22.80
2022-08-25T01:59:24.134Z,22.79
2022-08-25T02:01:29.378Z,22.78
2022-08-25T02:03:36.601Z,22.77
2022-08-25T02:05:41.726Z,22.76
2022-08-25T02:07:46.902Z,22.77
2022-08-25T02:09:51.749Z,22.77
2022-08-25T02:11:56.503Z,22.74
2022-08-25T02:14:01.197Z,22.75
2022-08-25T02:16:06.935Z,22.77
2022-08-25T02:18:12.243Z,22.77
2022-08-25T02:20:16.928Z,22.77
2022-08-25T02:22:21.597Z,22.76
2022-08-25T02:24:26.463Z,22.75
2022-08-25T02:26:31.482Z,22.75
2022-08-25T02:28:36.450Z,22.78
2022-08-25T02:30:43.112Z,22.80
2022-08-25T02:32:48.071Z,22.80
2022-08-25T02:34:52.888Z,22.82
2022-08-25T02:36:57.622Z,22.81
2022-08-25T02:39:03.102Z,22.82
2022-08-25T02:41:14.601Z,22.84
2022-08-25T02:43:19.236Z,22.85
2022-08-25T02:45:23.893Z,22.84
2022-08-25T02:47:28.757Z,22.85
2022-08-25T02:49:33.425Z,22.86
2022-08-25T02:51:38.314Z,22.88
2022-08-25T02:53:44.035Z,22.88
2022-08-25T02:55:49.019Z,22.90
2022-08-25T02:57:53.768Z,22.91
2022-08-25T02:59:58.688Z,22.94
2022-08-25T03:02:03.406Z,22.95
2022-08-25T03:04:08.244Z,22.92
2022-08-25T03:06:14.596Z,22.91
2022-08-25T03:08:19.329Z,22.90
2022-08-25T03:10:24.187Z,22.87
2022-08-25T03:12:28.914Z,22.82
2022-08-25T03:14:33.564Z,22.80
2022-08-25T03:16:38.907Z,22.81
2022-08-25T03:18:44.199Z,22.82
2022-08-25T03:20:49.191Z,22.82
2022-08-25T03:22:54.004Z,22.82
2022-08-25T03:24:59.129Z,22.80
2022-08-25T03:27:03.920Z,22.79
2022-08-25T03:29:08.941Z,22.79
2022-08-25T03:31:13.614Z,22.78
2022-08-25T03:33:18.306Z,22.76
2022-08-25T03:35:24.041Z,22.73
2022-08-25T03:37:28.754Z,22.72
2022-08-25T03:39:33.443Z,22.67
2022-08-25T03:41:41.683Z,22.65
2022-08-25T03:43:48.241Z,22.64
2022-08-25T03:45:56.611Z,22.64
2022-08-25T03:48:01.396Z,22.64
2022-08-25T03:50:09.470Z,22.65
2022-08-25T03:52:14.113Z,22.63
2022-08-25T03:54:21.613Z,22.63
2022-08-25T03:56:26.350Z,22.62
2022-08-25T03:58:31.086Z,22.62
2022-08-25T04:00:35.915Z,22.63
2022-08-25T04:02:41.335Z,22.65
2022-08-25T04:04:46.279Z,22.66
2022-08-25T04:06:51.324Z,22.65
2022-08-25T04:08:56.609Z,22.66
2022-08-25T04:11:05.086Z,22.66
2022-08-25T04:13:09.950Z,22.65
2022-08-25T04:15:15.165Z,22.64
2022-08-25T04:17:20.059Z,22.62
2022-08-25T04:19:24.796Z,22.57
2022-08-25T04:21:30.088Z,22.57
2022-08-25T04:23:38.381Z,22.57
2022-08-25T04:25:44.143Z,22.56
2022-08-25T04:27:50.994Z,22.52
2022-08-25T04:29:55.820Z,22.48
2022-08-25T04:32:00.554Z,22.47
2022-08-25T04:34:28.489Z,22.46
2022-08-25T04:36:31.461Z,22.43
2022-08-25T04:38:36.420Z,22.45
2022-08-25T04:40:41.128Z,22.47
2022-08-25T04:42:45.886Z,22.47
2022-08-25T04:44:53.139Z,22.47
2022-08-25T04:46:58.267Z,22.47
2022-08-25T04:49:04.436Z,22.46
2022-08-25T04:51:13.025Z,22.43
2022-08-25T04:53:17.863Z,22.39
2022-08-25T04:55:23.576Z,22.39
2022-08-25T04:57:28.358Z,22.40
2022-08-25T04:59:33.112Z,22.40
2022-08-25T05:01:38.672Z,22.43
2022-08-25T05:03:43.941Z,22.46
2022-08-25T05:05:48.625Z,22.48
2022-08-25T05:07:53.452Z,22.49
2022-08-25T05:09:58.981Z,22.48
2022-08-25T05:12:04.711Z,22.51
2022-08-25T05:14:09.497Z,22.53
2022-08-25T05:16:14.474Z,22.52
2022-08-25T05:18:21.016Z,22.49
2022-08-25T05:20:26.800Z,22.47
2022-08-25T05:22:31.495Z,22.44
2022-08-25T05:24:36.203Z,22.40
2022-08-25T05:26:41.059Z,22.36
2022-08-25T05:28:45.703Z,22.30
2022-08-25T05:30:50.600Z,22.25
2022-08-25T05:32:55.429Z,22.20
2022-08-25T05:35:00.107Z,22.18
2022-08-25T05:37:07.354Z,22.16
2022-08-25T05:39:14.209Z,22.15
2022-08-25T05:41:21.771Z,22.16
2022-08-25T05:43:26.597Z,22.18
2022-08-25T05:45:31.382Z,22.20
2022-08-25T05:47:36.165Z,22.18
2022-08-25T05:49:42.164Z,22.17
2022-08-25T05:51:47.009Z,22.16
2022-08-25T05:53:52.159Z,22.15
2022-08-25T05:55:58.962Z,22.13
2022-08-25T05:58:03.770Z,22.11
2022-08-25T06:00:11.350Z,22.12
2022-08-25T06:02:19.260Z,22.15
2022-08-25T06:04:24.008Z,22.19
2022-08-25T06:06:28.773Z,22.20
2022-08-25T06:08:33.774Z,22.21
2022-08-25T06:10:38.916Z,22.23
2022-08-25T06:12:48.317Z,22.28
2022-08-25T06:14:53.812Z,22.29
2022-08-25T06:16:58.607Z,22.31
2022-08-25T06:19:03.331Z,22.36
2022-08-25T06:21:13.202Z,22.38
2022-08-25T06:23:18.040Z,22.44
2022-08-25T06:25:25.611Z,22.46
2022-08-25T06:27:30.497Z,22.51
2022-08-25T06:29:35.249Z,22.57
2022-08-25T06:31:43.565Z,22.63
2022-08-25T06:33:48.572Z,22.64
2022-08-25T06:35:55.737Z,22.65
2022-08-25T06:38:03.715Z,22.69
2022-08-25T06:40:10.161Z,22.71
2022-08-25T06:42:15.035Z,22.73
2022-08-25T06:44:19.966Z,22.76
2022-08-25T06:46:35.709Z,22.78
2022-08-25T06:48:42.411Z,22.83
2022-08-25T06:50:47.558Z,22.87
2022-08-25T06:52:52.383Z,22.92
2022-08-25T06:54:57.234Z,22.95
2022-08-25T06:57:02.293Z,22.96
2022-08-25T06:59:08.049Z,22.97
2022-08-25T07:01:20.051Z,22.99
2022-08-25T07:03:25.249Z,22.99
2022-08-25T07:05:43.617Z,22.96
2022-08-25T07:07:48.925Z,22.96
2022-08-25T07:09:53.750Z,23.00
2022-08-25T07:11:58.587Z,23.01
2022-08-25T07:14:04.803Z,23.02
2022-08-25T07:16:10.438Z,23.06
2022-08-25T07:18:15.292Z,23.10
2022-08-25T07:20:20.274Z,23.13
2022-08-25T07:22:25.426Z,23.17
2022-08-25T07:24:33.222Z,23.22
2022-08-25T07:26:39.195Z,23.31
2022-08-25T07:28:47.243Z,23.38
2022-08-25T07:30:52.795Z,23.46
2022-08-25T07:32:57.537Z,23.52
2022-08-25T07:35:02.223Z,23.57
2022-08-25T07:37:08.313Z,23.62
2022-08-25T07:39:22.768Z,23.69
2022-08-25T07:41:27.602Z,23.76
2022-08-25T07:43:32.369Z,23.79
2022-08-25T07:45:43.154Z,23.78
2022-08-25T07:47:54.114Z,23.77
2022-08-25T07:49:59.120Z,23.75
2022-08-25T07:52:06.618Z,23.72
2022-08-25T07:54:12.304Z,23.71
2022-08-25T07:56:19.539Z,23.71
2022-08-25T07:58:24.438Z,23.74
2022-08-25T08:00:29.676Z,23.79
2022-08-25T08:02:34.508Z,23.83
2022-08-25T08:04:39.483Z,23.86
2022-08-25T08:06:48.641Z,23.93
2022-08-25T08:08:57.927Z,24.04
2022-08-25T08:11:04.739Z,24.17
2022-08-25T08:13:11.089Z,24.26
2022-08-25T08:15:16.636Z,24.33
2022-08-25T08:17:22.229Z,24.41
2022-08-25T08:19:26.903Z,24.48
2022-08-25T08:21:33.807Z,24.57
2022-08-25T08:23:38.804Z,24.67
2022-08-25T08:25:43.508Z,24.77
2022-08-25T08:27:51.309Z,24.85
2022-08-25T08:29:59.991Z,24.93
2022-08-25T08:32:10.653Z,24.99
2022-08-25T08:34:15.703Z,25.05
2022-08-25T08:36:21.365Z,25.07
2022-08-25T08:38:30.814Z,25.06
2022-08-25T08:40:45.689Z,25.07
2022-08-25T08:43:01.868Z,25.05
2022-08-25T08:45:19.414Z,25.12
2022-08-25T08:47:35.570Z,25.27
2022-08-25T08:49:48.648Z,25.38
2022-08-25T08:52:01.927Z,25.43
2022-08-25T08:54:14.977Z,25.45
2022-08-25T08:56:23.487Z,25.50
2022-08-25T08:58:38.843Z,25.56
2022-08-25T09:00:52.377Z,25.65
2022-08-25T09:03:04.973Z,25.75
2022-08-25T09:05:13.366Z,25.81
2022-08-25T09:07:20.903Z,25.91
2022-08-25T09:09:29.175Z,25.94
2022-08-25T09:11:46.805Z,26.00
2022-08-25T09:14:08.558Z,26.05
2022-08-25T09:16:33.924Z,26.17
2022-08-25T09:18:50.986Z,26.24
2022-08-25T09:21:09.258Z,26.28
2022-08-25T09:23:24.831Z,26.27
2022-08-25T09:25:53.438Z,26.22
2022-08-25T09:28:07.526Z,26.21
2022-08-25T09:30:15.667Z,26.20
2022-08-25T09:32:24.071Z,26.20
2022-08-25T09:34:34.838Z,26.17
2022-08-25T09:36:39.914Z,26.17
2022-08-25T09:38:44.641Z,26.19
2022-08-25T09:40:52.098Z,26.25
2022-08-25T09:42:59.750Z,26.28
2022-08-25T09:45:05.578Z,26.30
2022-08-25T09:47:22.304Z,26.31
2022-08-25T09:49:34.615Z,26.35
2022-08-25T09:51:42.921Z,26.42
2022-08-25T09:53:55.015Z,26.49
2022-08-25T09:56:04.969Z,26.52
2022-08-25T09:58:22.190Z,26.56
2022-08-25T10:00:29.619Z,26.62
2022-08-25T10:02:35.520Z,26.70
2022-08-25T10:04:42.346Z,26.70
2022-08-25T10:06:49.468Z,26.66
2022-08-25T10:08:59.105Z,26.69
2022-08-25T10:11:08.681Z,26.68
2022-08-25T10:13:22.588Z,26.68
2022-08-25T10:15:31.510Z,26.72
2022-08-25T10:17:36.671Z,26.81
2022-08-25T10:19:43.448Z,26.97
2022-08-25T10:22:04.875Z,27.12
2022-08-25T10:24:11.530Z,27.21
2022-08-25T10:26:29.679Z,27.30
2022-08-25T10:28:54.703Z,27.40
2022-08-25T10:31:10.352Z,27.51
2022-08-25T10:33:27.068Z,27.60
2022-08-25T10:35:41.381Z,27.67
2022-08-25T10:37:57.578Z,27.73
2022-08-25T10:40:13.779Z,27.75
2022-08-25T10:42:34.665Z,27.81
2022-08-25T10:44:50.772Z,27.83
2022-08-25T10:47:08.767Z,27.84
2022-08-25T10:49:18.961Z,27.91
2022-08-25T10:51:38.350Z,28.01
2022-08-25T10:53:53.326Z,28.15
2022-08-25T10:56:12.714Z,28.22
2022-08-25T10:58:25.192Z,28.20
2022-08-25T11:00:48.264Z,28.07
2022-08-25T11:03:10.251Z,27.95
2022-08-25T11:05:27.060Z,27.91
2022-08-25T11:07:37.576Z,27.95
2022-08-25T11:09:46.962Z,28.04
2022-08-25T11:11:59.718Z,28.06
2022-08-25T11:14:11.465Z,28.13
2022-08-25T11:16:21.851Z,28.25
2022-08-25T11:18:28.390Z,28.37
2022-08-25T11:20:37.989Z,28.39
2022-08-25T11:22:46.157Z,28.40
2022-08-25T11:25:02.345Z,28.40
2022-08-25T11:27:14.936Z,28.42
2022-08-25T11:29:25.787Z,28.43
2022-08-25T11:31:31.027Z,28.42
2022-08-25T11:33:36.375Z,28.40
2022-08-25T11:35:45.271Z,28.40
2022-08-25T11:38:12.594Z,28.40
2022-08-25T11:40:39.868Z,28.42
2022-08-25T11:42:59.026Z,28.54
2022-08-25T11:45:15.862Z,28.70
2022-08-25T11:47:50.725Z,28.82
2022-08-25T11:50:00.805Z,28.91
2022-08-25T11:52:08.745Z,28.92
2022-08-25T11:54:22.314Z,28.87
2022-08-25T11:56:40.206Z,28.85
2022-08-25T11:58:51.771Z,28.81
2022-08-25T12:00:57.459Z,28.76
2022-08-25T12:03:39.616Z,28.74
2022-08-25T12:06:13.286Z,28.69
2022-08-25T12:09:14.387Z,28.66
2022-08-25T12:11:51.892Z,28.77
2022-08-25T12:14:15.805Z,28.88
2022-08-25T12:16:43.823Z,28.93
2022-08-25T12:18:50.430Z,29.12
2022-08-25T12:21:32.007Z,29.24
2022-08-25T12:23:44.908Z,29.43
2022-08-25T12:25:53.746Z,29.55
2022-08-25T12:28:09.082Z,29.62
2022-08-25T12:30:20.671Z,29.75
2022-08-25T12:32:46.741Z,29.87
2022-08-25T12:35:22.576Z,29.87
2022-08-25T12:37:28.108Z,29.78
2022-08-25T12:39:35.988Z,29.74
2022-08-25T12:41:55.376Z,29.61
2022-08-25T12:44:20.044Z,29.59
2022-08-25T12:46:43.428Z,29.62
2022-08-25T12:48:58.726Z,29.61
2022-08-25T12:51:06.362Z,29.68
2022-08-25T12:53:15.510Z,29.72
2022-08-25T12:55:22.610Z,29.76
2022-08-25T12:57:40.564Z,29.78
2022-08-25T12:59:52.703Z,29.90
2022-08-25T13:02:33.500Z,30.04
2022-08-25T13:04:57.638Z,30.24
2022-08-25T13:07:13.258Z,30.26
2022-08-25T13:10:02.966Z,30.26
2022-08-25T13:12:13.267Z,30.36
2022-08-25T13:14:22.713Z,30.43
2022-08-25T13:16:30.147Z,30.49
2022-08-25T13:18:36.813Z,30.44
2022-08-25T13:20:44.112Z,30.40
2022-08-25T13:22:57.258Z,30.35
2022-08-25T13:25:24.708Z,30.36
2022-08-25T13:27:41.023Z,30.39
2022-08-25T13:29:54.077Z,30.54
2022-08-25T13:32:01.610Z,30.70
2022-08-25T13:34:08.925Z,30.83
2022-08-25T13:36:25.808Z,31.00
2022-08-25T13:38:30.921Z,31.03
2022-08-25T13:40:36.846Z,30.96
2022-08-25T13:42:50.863Z,30.87
2022-08-25T13:44:59.682Z,30.78
2022-08-25T13:47:11.059Z,30.78
2022-08-25T13:49:26.894Z,30.76
2022-08-25T13:51:32.972Z,30.62
2022-08-25T13:53:38.690Z,30.49
2022-08-25T13:55:52.222Z,30.34
2022-08-25T13:57:59.179Z,30.14
2022-08-25T14:00:09.541Z,29.90
2022-08-25T14:02:34.572Z,29.76
2022-08-25T14:04:51.093Z,29.74
2022-08-25T14:07:24.825Z,29.69
2022-08-25T14:09:40.451Z,29.63
2022-08-25T14:11:48.190Z,29.57
2022-08-25T14:14:02.966Z,29.51
2022-08-25T14:16:12.790Z,29.47
2022-08-25T14:18:27.685Z,29.46
2022-08-25T14:20:34.465Z,29.47
2022-08-25T14:22:39.198Z,29.46
2022-08-25T14:24:46.880Z,29.51
2022-08-25T14:26:53.825Z,29.57
2022-08-25T14:28:59.770Z,29.64
2022-08-25T14:31:09.041Z,29.69
2022-08-25T14:33:17.543Z,29.71
2022-08-25T14:35:22.689Z,29.72
2022-08-25T14:37:27.522Z,29.72
2022-08-25T14:39:32.246Z,29.72
2022-08-25T14:41:39.761Z,29.76
2022-08-25T14:43:44.496Z,29.75
2022-08-25T14:45:50.399Z,29.67
2022-08-25T14:48:10.496Z,29.64
2022-08-25T14:50:16.241Z,29.63
2022-08-25T14:52:28.899Z,29.57
2022-08-25T14:54:35.847Z,29.50
2022-08-25T14:56:43.386Z,29.47
2022-08-25T14:58:52.954Z,29.46
2022-08-25T15:00:59.102Z,29.45
2022-08-25T15:03:04.172Z,29.46
2022-08-25T15:05:12.014Z,29.40
2022-08-25T15:07:16.867Z,29.40
2022-08-25T15:09:21.585Z,29.39
2022-08-25T15:11:27.976Z,29.36
2022-08-25T15:13:33.893Z,29.37
2022-08-25T15:15:52.435Z,29.35
2022-08-25T15:18:00.940Z,29.37
2022-08-25T15:20:07.849Z,29.42
2022-08-25T15:22:15.909Z,29.47
2022-08-25T15:24:22.112Z,29.45
2022-08-25T15:26:26.934Z,29.45
2022-08-25T15:28:31.744Z,29.42
2022-08-25T15:30:36.896Z,29.41
2022-08-25T15:32:41.610Z,29.43
2022-08-25T15:34:47.465Z,29.48
2022-08-25T15:36:52.788Z,29.54
2022-08-25T15:38:57.507Z,29.61
2022-08-25T15:41:02.210Z,29.62
2022-08-25T15:43:07.966Z,29.63
2022-08-25T15:45:13.408Z,29.57
2022-08-25T15:47:18.262Z,29.53
2022-08-25T15:49:23.729Z,29.45
2022-08-25T15:51:29.683Z,29.42
2022-08-25T15:53:35.500Z,29.44
2022-08-25T15:55:41.836Z,29.45
2022-08-25T15:57:46.897Z,29.43
2022-08-25T15:59:54.398Z,29.41
2022-08-25T16:01:59.488Z,29.42
2022-08-25T16:04:04.773Z,29.42
2022-08-25T16:06:20.098Z,29.42
2022-08-25T16:08:24.754Z,29.36
2022-08-25T16:10:32.650Z,29.28
2022-08-25T16:12:37.472Z,29.22
2022-08-25T16:14:42.627Z,29.19
2022-08-25T16:16:47.685Z,29.18
2022-08-25T16:18:53.083Z,29.17
2022-08-25T16:20:57.909Z,29.15
2022-08-25T16:23:03.758Z,29.15
2022-08-25T16:25:10.353Z,29.15
2022-08-25T16:27:18.288Z,29.19
2022-08-25T16:29:23.034Z,29.20
2022-08-25T16:31:28.506Z,29.21
2022-08-25T16:33:33.701Z,29.24
2022-08-25T16:35:41.703Z,29.27
2022-08-25T16:37:46.630Z,29.28
2022-08-25T16:39:55.921Z,29.26
2022-08-25T16:42:00.777Z,29.25
2022-08-25T16:44:11.191Z,29.21
2022-08-25T16:46:20.878Z,29.17
2022-08-25T16:48:28.747Z,29.13
2022-08-25T16:50:34.544Z,29.11
2022-08-25T16:52:40.708Z,29.10
2022-08-25T16:54:49.044Z,29.08
2022-08-25T16:56:57.771Z,29.04
2022-08-25T16:59:04.860Z,29.03
2022-08-25T17:01:13.228Z,29.01
2022-08-25T17:03:20.570Z,28.99
2022-08-25T17:05:30.882Z,28.97
2022-08-25T17:07:39.183Z,28.95
2022-08-25T17:09:44.147Z,28.88
2022-08-25T17:11:54.155Z,28.82
2022-08-25T17:14:04.102Z,28.79
2022-08-25T17:16:20.280Z,28.74
2022-08-25T17:18:25.038Z,28.68
2022-08-25T17:20:32.446Z,28.67
2022-08-25T17:22:38.576Z,28.65
2022-08-25T17:24:47.330Z,28.64
2022-08-25T17:27:05.541Z,28.60
2022-08-25T17:29:10.701Z,28.56
2022-08-25T17:31:19.648Z,28.54
2022-08-25T17:33:25.817Z,28.52
2022-08-25T17:35:40.910Z,28.52
2022-08-25T17:37:51.941Z,28.52
2022-08-25T17:40:03.020Z,28.50
2022-08-25T17:42:08.739Z,28.47
2022-08-25T17:44:14.341Z,28.42
2022-08-25T17:46:25.638Z,28.38
2022-08-25T17:48:33.194Z,28.33
2022-08-25T17:50:40.428Z,28.30
2022-08-25T17:52:45.587Z,28.26
2022-08-25T17:54:50.512Z,28.19
2022-08-25T17:56:57.163Z,28.12
2022-08-25T17:59:01.932Z,28.06
2022-08-25T18:01:07.673Z,28.01
2022-08-25T18:03:15.622Z,27.95
2022-08-25T18:05:20.549Z,27.91
2022-08-25T18:07:25.719Z,27.90
2022-08-25T18:09:30.495Z,27.89
2022-08-25T18:11:35.416Z,27.87
2022-08-25T18:13:41.718Z,27.86
2022-08-25T18:15:47.098Z,27.85
2022-08-25T18:17:53.357Z,27.84
2022-08-25T18:19:59.650Z,27.82
2022-08-25T18:22:04.565Z,27.80
2022-08-25T18:24:09.574Z,27.74
2022-08-25T18:26:15.363Z,27.69
2022-08-25T18:28:20.578Z,27.65
2022-08-25T18:30:27.525Z,27.58
2022-08-25T18:32:33.180Z,27.50
2022-08-25T18:34:38.121Z,27.42
2022-08-25T18:36:43.018Z,27.37
2022-08-25T18:38:49.814Z,27.33
2022-08-25T18:41:00.257Z,27.30
2022-08-25T18:43:07.156Z,27.27
2022-08-25T18:45:12.647Z,27.24
2022-08-25T18:47:17.482Z,27.19
2022-08-25T18:49:26.737Z,27.15
2022-08-25T18:51:33.881Z,27.13
2022-08-25T18:53:50.570Z,27.11
2022-08-25T18:55:56.230Z,27.11
2022-08-25T18:58:01.540Z,27.06
2022-08-25T19:00:10.978Z,27.00
2022-08-25T19:02:15.890Z,26.94
2022-08-25T19:04:28.425Z,26.87
2022-08-25T19:06:39.673Z,26.86
2022-08-25T19:08:52.160Z,26.86
2022-08-25T19:11:01.754Z,26.84
2022-08-25T19:13:09.002Z,26.79
2022-08-25T19:15:13.871Z,26.69
2022-08-25T19:17:24.773Z,26.61
2022-08-25T19:19:29.747Z,26.54
2022-08-25T19:21:34.972Z,26.48
2022-08-25T19:23:39.759Z,26.41
2022-08-25T19:25:44.814Z,26.36
2022-08-25T19:27:52.648Z,26.33
2022-08-25T19:29:57.670Z,26.29
2022-08-25T19:32:03.296Z,26.27
2022-08-25T19:34:11.383Z,26.21
2022-08-25T19:36:18.366Z,26.16
2022-08-25T19:38:33.800Z,26.12
2022-08-25T19:40:41.726Z,26.10
2022-08-25T19:42:47.274Z,26.05
2022-08-25T19:44:52.294Z,25.98
2022-08-25T19:46:58.193Z,25.88
2022-08-25T19:49:07.636Z,25.79
2022-08-25T19:51:13.555Z,25.70
2022-08-25T19:53:18.583Z,25.60
2022-08-25T19:55:23.562Z,25.54
2022-08-25T19:57:42.983Z,25.48
2022-08-25T19:59:48.772Z,25.40
2022-08-25T20:01:54.977Z,25.32
2022-08-25T20:03:59.784Z,25.23
2022-08-25T20:06:05.270Z,25.16
2022-08-25T20:08:10.118Z,25.13
2022-08-25T20:10:16.018Z,25.11
2022-08-25T20:12:24.165Z,25.05
2022-08-25T20:14:32.344Z,25.03
2022-08-25T20:16:37.817Z,25.02
2022-08-25T20:18:42.664Z,25.01
2022-08-25T20:20:47.436Z,25.00
2022-08-25T20:22:54.208Z,24.97
2022-08-25T20:25:13.223Z,24.95
2022-08-25T20:27:23.478Z,24.88
2022-08-25T20:29:28.394Z,24.82
2022-08-25T20:31:33.685Z,24.77
2022-08-25T20:33:41.284Z,24.73
2022-08-25T20:35:53.162Z,24.68
2022-08-25T20:37:59.510Z,24.64
2022-08-25T20:40:06.528Z,24.58
2022-08-25T20:42:14.266Z,24.52
2022-08-25T20:44:23.282Z,24.47
2022-08-25T20:46:28.569Z,24.46
2022-08-25T20:48:34.542Z,24.43
2022-08-25T20:50:40.720Z,24.42
2022-08-25T20:52:45.584Z,24.39
2022-08-25T20:54:51.146Z,24.37
2022-08-25T20:56:57.004Z,24.34
2022-08-25T20:59:02.238Z,24.31
2022-08-25T21:01:08.576Z,24.26
2022-08-25T21:03:13.409Z,24.21
2022-08-25T21:05:18.789Z,24.15
2022-08-25T21:07:24.139Z,24.12
2022-08-25T21:09:29.469Z,24.08
2022-08-25T21:11:34.986Z,24.03
2022-08-25T21:13:41.143Z,23.98
2022-08-25T21:15:45.848Z,23.93
2022-08-25T21:17:54.664Z,23.88
2022-08-25T21:19:59.445Z,23.84
2022-08-25T21:22:04.256Z,23.81
2022-08-25T21:24:09.354Z,23.77
2022-08-25T21:26:16.475Z,23.70
2022-08-25T21:28:21.192Z,23.63
2022-08-25T21:30:25.890Z,23.57
2022-08-25T21:32:33.708Z,23.53
2022-08-25T21:34:38.549Z,23.48
2022-08-25T21:36:43.942Z,23.44
2022-08-25T21:38:50.940Z,23.39
2022-08-25T21:40:55.775Z,23.34
2022-08-25T21:43:00.643Z,23.32
2022-08-25T21:45:11.142Z,23.30
2022-08-25T21:47:21.075Z,23.25
2022-08-25T21:49:26.768Z,23.22
2022-08-25T21:51:34.329Z,23.18
2022-08-25T21:53:44.202Z,23.15
2022-08-25T21:55:50.348Z,23.11
2022-08-25T21:57:55.135Z,23.11
2022-08-25T21:59:59.877Z,23.08
2022-08-25T22:02:08.819Z,23.06
2022-08-25T22:04:14.891Z,23.04
2022-08-25T22:06:20.173Z,23.01
2022-08-25T22:08:30.459Z,23.00
2022-08-25T22:10:35.589Z,22.99
2022-08-25T22:12:44.714Z,22.98
2022-08-25T22:14:49.742Z,22.99
2022-08-25T22:16:56.405Z,23.01
2022-08-25T22:19:02.868Z,22.99
2022-08-25T22:21:08.811Z,22.98
2022-08-25T22:23:20.229Z,22.99
2022-08-25T22:25:25.336Z,23.01
2022-08-25T22:27:30.141Z,23.02
2022-08-25T22:29:35.049Z,23.04
2022-08-25T22:31:40.623Z,23.04
2022-08-25T22:33:45.897Z,23.05
2022-08-25T22:35:54.322Z,23.06
2022-08-25T22:38:06.001Z,23.08
2022-08-25T22:40:13.873Z,23.10
2022-08-25T22:42:19.350Z,23.11
2022-08-25T22:44:30.829Z,23.08
2022-08-25T22:46:37.577Z,23.05
2022-08-25T22:48:43.191Z,22.99
2022-08-25T22:50:50.905Z,22.95
2022-08-25T22:52:56.340Z,22.91
2022-08-25T22:55:01.366Z,22.90
2022-08-25T22:57:07.076Z,22.90
2022-08-25T22:59:13.607Z,22.90
2022-08-25T23:01:20.017Z,22.90
2022-08-25T23:03:25.979Z,22.88
2022-08-25T23:05:30.788Z,22.84
2022-08-25T23:07:36.606Z,22.81
2022-08-25T23:09:41.509Z,22.79
2022-08-25T23:11:48.961Z,22.78
2022-08-25T23:13:58.263Z,22.76
2022-08-25T23:16:05.815Z,22.72
2022-08-25T23:18:10.639Z,22.70
2022-08-25T23:20:16.072Z,22.68
2022-08-25T23:22:21.273Z,22.61
2022-08-25T23:24:29.514Z,22.56
2022-08-25T23:26:35.685Z,22.50
2022-08-25T23:28:40.824Z,22.49
2022-08-25T23:30:46.140Z,22.47
2022-08-25T23:33:02.054Z,22.46
2022-08-25T23:35:10.250Z,22.44
2022-08-25T23:37:15.903Z,22.44
2022-08-25T23:39:21.886Z,22.42
2022-08-25T23:41:28.399Z,22.45
2022-08-25T23:43:34.513Z,22.46
2022-08-25T23:45:39.876Z,22.46
2022-08-25T23:47:45.377Z,22.47
2022-08-25T23:49:50.168Z,22.46
2022-08-25T23:51:54.908Z,22.41
2022-08-25T23:54:00.481Z,22.39
2022-08-25T23:56:06.316Z,22.35
2022-08-25T23:58:11.024Z,22.29
